sensor_id;sensor_type;location;lat;lon;timestamp;temperature;humidity
75088;HTU21D;63664;44.868;40.600;2023-03-14T00:00:22;2.52;92.40
75088;HTU21D;63664;44.868;40.600;2023-03-14T00:02:54;2.52;92.49
75088;HTU21D;63664;44.868;40.600;2023-03-14T00:05:23;2.52;92.45
75088;HTU21D;63664;44.868;40.600;2023-03-14T00:07:51;2.50;92.43
75088;HTU21D;63664;44.868;40.600;2023-03-14T00:10:20;2.51;92.48
75088;HTU21D;63664;44.868;40.600;2023-03-14T00:12:46;2.53;92.40
75088;HTU21D;63664;44.868;40.600;2023-03-14T00:15:16;2.54;92.42
75088;HTU21D;63664;44.868;40.600;2023-03-14T00:17:43;2.55;92.38
75088;HTU21D;63664;44.868;40.600;2023-03-14T00:20:10;2.57;92.53
75088;HTU21D;63664;44.868;40.600;2023-03-14T00:22:43;2.57;92.43
75088;HTU21D;63664;44.868;40.600;2023-03-14T00:25:12;2.58;92.37
75088;HTU21D;63664;44.868;40.600;2023-03-14T00:27:44;2.58;92.40
75088;HTU21D;63664;44.868;40.600;2023-03-14T00:30:13;2.57;92.40
75088;HTU21D;63664;44.868;40.600;2023-03-14T00:32:39;2.59;92.43
75088;HTU21D;63664;44.868;40.600;2023-03-14T00:35:08;2.59;92.50
75088;HTU21D;63664;44.868;40.600;2023-03-14T00:37:34;2.61;92.39
75088;HTU21D;63664;44.868;40.600;2023-03-14T00:40:05;2.62;92.39
75088;HTU21D;63664;44.868;40.600;2023-03-14T00:42:33;2.61;92.46
75088;HTU21D;63664;44.868;40.600;2023-03-14T00:45:00;2.64;92.56
75088;HTU21D;63664;44.868;40.600;2023-03-14T00:47:27;2.62;92.41
75088;HTU21D;63664;44.868;40.600;2023-03-14T00:49:56;2.64;92.41
75088;HTU21D;63664;44.868;40.600;2023-03-14T00:52:23;2.66;92.34
75088;HTU21D;63664;44.868;40.600;2023-03-14T00:54:49;2.66;92.47
75088;HTU21D;63664;44.868;40.600;2023-03-14T00:57:17;2.66;92.37
75088;HTU21D;63664;44.868;40.600;2023-03-14T00:59:44;2.66;92.34
75088;HTU21D;63664;44.868;40.600;2023-03-14T01:02:10;2.66;92.33
75088;HTU21D;63664;44.868;40.600;2023-03-14T01:04:39;2.65;92.37
75088;HTU21D;63664;44.868;40.600;2023-03-14T01:07:05;2.67;92.34
75088;HTU21D;63664;44.868;40.600;2023-03-14T01:09:34;2.67;92.37
75088;HTU21D;63664;44.868;40.600;2023-03-14T01:12:02;2.68;92.37
75088;HTU21D;63664;44.868;40.600;2023-03-14T01:14:31;2.68;92.31
75088;HTU21D;63664;44.868;40.600;2023-03-14T01:16:57;2.68;92.33
75088;HTU21D;63664;44.868;40.600;2023-03-14T01:19:28;2.68;92.27
75088;HTU21D;63664;44.868;40.600;2023-03-14T01:21:57;2.69;92.30
75088;HTU21D;63664;44.868;40.600;2023-03-14T01:24:26;2.67;92.28
75088;HTU21D;63664;44.868;40.600;2023-03-14T01:26:52;2.67;92.27
75088;HTU21D;63664;44.868;40.600;2023-03-14T01:29:23;2.69;92.26
75088;HTU21D;63664;44.868;40.600;2023-03-14T01:31:52;2.70;92.32
75088;HTU21D;63664;44.868;40.600;2023-03-14T01:34:18;2.69;92.32
75088;HTU21D;63664;44.868;40.600;2023-03-14T01:36:47;2.68;92.35
75088;HTU21D;63664;44.868;40.600;2023-03-14T01:39:14;2.69;92.29
75088;HTU21D;63664;44.868;40.600;2023-03-14T01:41:43;2.70;92.30
75088;HTU21D;63664;44.868;40.600;2023-03-14T01:44:12;2.70;92.30
75088;HTU21D;63664;44.868;40.600;2023-03-14T01:46:41;2.70;92.27
75088;HTU21D;63664;44.868;40.600;2023-03-14T01:54:50;2.66;92.33
75088;HTU21D;63664;44.868;40.600;2023-03-14T01:58:04;2.66;92.32
75088;HTU21D;63664;44.868;40.600;2023-03-14T02:00:14;2.66;92.37
75088;HTU21D;63664;44.868;40.600;2023-03-14T02:02:48;2.68;92.39
75088;HTU21D;63664;44.868;40.600;2023-03-14T02:05:23;2.69;92.37
75088;HTU21D;63664;44.868;40.600;2023-03-14T02:08:04;2.71;92.35
75088;HTU21D;63664;44.868;40.600;2023-03-14T02:10:47;2.72;92.31
75088;HTU21D;63664;44.868;40.600;2023-03-14T02:13:18;2.74;92.43
75088;HTU21D;63664;44.868;40.600;2023-03-14T02:15:51;2.75;92.25
75088;HTU21D;63664;44.868;40.600;2023-03-14T02:18:41;2.78;92.24
75088;HTU21D;63664;44.868;40.600;2023-03-14T02:21:56;2.79;92.17
75088;HTU21D;63664;44.868;40.600;2023-03-14T02:24:57;2.78;92.26
75088;HTU21D;63664;44.868;40.600;2023-03-14T02:27:30;2.79;92.25
75088;HTU21D;63664;44.868;40.600;2023-03-14T02:30:06;2.78;92.28
75088;HTU21D;63664;44.868;40.600;2023-03-14T02:32:36;2.80;92.21
75088;HTU21D;63664;44.868;40.600;2023-03-14T02:35:09;2.81;92.14
75088;HTU21D;63664;44.868;40.600;2023-03-14T02:38:22;2.83;92.13
75088;HTU21D;63664;44.868;40.600;2023-03-14T02:40:42;2.83;92.21
75088;HTU21D;63664;44.868;40.600;2023-03-14T02:43:08;2.83;92.22
75088;HTU21D;63664;44.868;40.600;2023-03-14T02:45:46;2.83;92.15
75088;HTU21D;63664;44.868;40.600;2023-03-14T02:50:59;2.85;92.07
75088;HTU21D;63664;44.868;40.600;2023-03-14T02:53:30;2.87;92.07
75088;HTU21D;63664;44.868;40.600;2023-03-14T02:56:05;2.88;92.03
75088;HTU21D;63664;44.868;40.600;2023-03-14T02:58:33;2.88;92.00
75088;HTU21D;63664;44.868;40.600;2023-03-14T03:01:20;2.89;91.96
75088;HTU21D;63664;44.868;40.600;2023-03-14T03:03:48;2.91;91.95
75088;HTU21D;63664;44.868;40.600;2023-03-14T03:06:15;2.91;91.90
75088;HTU21D;63664;44.868;40.600;2023-03-14T03:08:44;2.93;91.91
75088;HTU21D;63664;44.868;40.600;2023-03-14T03:11:13;2.94;91.85
75088;HTU21D;63664;44.868;40.600;2023-03-14T03:13:40;2.93;91.82
75088;HTU21D;63664;44.868;40.600;2023-03-14T03:16:11;2.94;91.78
75088;HTU21D;63664;44.868;40.600;2023-03-14T03:18:42;2.95;91.74
75088;HTU21D;63664;44.868;40.600;2023-03-14T03:21:10;2.96;91.91
75088;HTU21D;63664;44.868;40.600;2023-03-14T03:23:41;2.94;91.82
75088;HTU21D;63664;44.868;40.600;2023-03-14T03:26:09;2.94;91.84
75088;HTU21D;63664;44.868;40.600;2023-03-14T03:28:36;2.94;91.80
75088;HTU21D;63664;44.868;40.600;2023-03-14T03:31:11;2.95;91.76
75088;HTU21D;63664;44.868;40.600;2023-03-14T03:33:40;2.95;91.73
75088;HTU21D;63664;44.868;40.600;2023-03-14T03:36:07;2.96;91.85
75088;HTU21D;63664;44.868;40.600;2023-03-14T03:38:36;2.96;91.79
75088;HTU21D;63664;44.868;40.600;2023-03-14T03:41:06;2.95;91.87
75088;HTU21D;63664;44.868;40.600;2023-03-14T03:43:32;2.95;91.79
75088;HTU21D;63664;44.868;40.600;2023-03-14T03:46:04;2.94;91.81
75088;HTU21D;63664;44.868;40.600;2023-03-14T03:48:32;2.93;91.82
75088;HTU21D;63664;44.868;40.600;2023-03-14T03:51:03;2.94;91.85
75088;HTU21D;63664;44.868;40.600;2023-03-14T03:53:30;2.93;91.82
75088;HTU21D;63664;44.868;40.600;2023-03-14T03:55:57;2.93;91.78
75088;HTU21D;63664;44.868;40.600;2023-03-14T03:58:23;2.94;91.79
75088;HTU21D;63664;44.868;40.600;2023-03-14T04:00:49;2.94;91.87
75088;HTU21D;63664;44.868;40.600;2023-03-14T04:03:18;2.94;91.89
75088;HTU21D;63664;44.868;40.600;2023-03-14T04:05:44;2.95;91.89
75088;HTU21D;63664;44.868;40.600;2023-03-14T04:08:16;2.98;91.82
75088;HTU21D;63664;44.868;40.600;2023-03-14T04:10:42;3.01;91.79
75088;HTU21D;63664;44.868;40.600;2023-03-14T04:13:22;3.05;91.89
75088;HTU21D;63664;44.868;40.600;2023-03-14T04:15:52;3.09;91.79
75088;HTU21D;63664;44.868;40.600;2023-03-14T04:18:24;3.12;91.72
75088;HTU21D;63664;44.868;40.600;2023-03-14T04:20:57;3.16;91.65
75088;HTU21D;63664;44.868;40.600;2023-03-14T04:23:30;3.19;91.60
75088;HTU21D;63664;44.868;40.600;2023-03-14T04:25:59;3.20;91.61
75088;HTU21D;63664;44.868;40.600;2023-03-14T04:28:25;3.20;91.59
75088;HTU21D;63664;44.868;40.600;2023-03-14T04:30:54;3.21;91.68
75088;HTU21D;63664;44.868;40.600;2023-03-14T04:33:26;3.21;91.59
75088;HTU21D;63664;44.868;40.600;2023-03-14T04:35:55;3.23;91.60
75088;HTU21D;63664;44.868;40.600;2023-03-14T04:38:24;3.25;91.60
75088;HTU21D;63664;44.868;40.600;2023-03-14T04:40:51;3.27;91.62
75088;HTU21D;63664;44.868;40.600;2023-03-14T04:43:26;3.29;91.72
75088;HTU21D;63664;44.868;40.600;2023-03-14T04:46:03;3.29;91.62
75088;HTU21D;63664;44.868;40.600;2023-03-14T04:48:32;3.33;91.53
75088;HTU21D;63664;44.868;40.600;2023-03-14T04:51:01;3.38;91.51
75088;HTU21D;63664;44.868;40.600;2023-03-14T04:53:31;3.42;91.50
75088;HTU21D;63664;44.868;40.600;2023-03-14T04:55:59;3.44;91.43
75088;HTU21D;63664;44.868;40.600;2023-03-14T04:58:33;3.46;91.33
75088;HTU21D;63664;44.868;40.600;2023-03-14T06:52:43;5.20;88.11
75088;HTU21D;63664;44.868;40.600;2023-03-14T06:55:18;5.22;88.05
75088;HTU21D;63664;44.868;40.600;2023-03-14T06:57:45;5.25;88.08
75088;HTU21D;63664;44.868;40.600;2023-03-14T07:00:13;5.31;88.03
75088;HTU21D;63664;44.868;40.600;2023-03-14T07:02:40;5.34;87.58
75088;HTU21D;63664;44.868;40.600;2023-03-14T07:05:14;5.39;87.57
75088;HTU21D;63664;44.868;40.600;2023-03-14T07:07:40;5.49;87.43
75088;HTU21D;63664;44.868;40.600;2023-03-14T07:10:10;5.60;87.29
75088;HTU21D;63664;44.868;40.600;2023-03-14T07:12:38;5.68;87.06
75088;HTU21D;63664;44.868;40.600;2023-03-14T07:15:04;5.70;86.74
75088;HTU21D;63664;44.868;40.600;2023-03-14T07:17:33;5.75;86.74
75088;HTU21D;63664;44.868;40.600;2023-03-14T07:20:02;5.78;86.45
75088;HTU21D;63664;44.868;40.600;2023-03-14T07:22:31;5.86;86.55
75088;HTU21D;63664;44.868;40.600;2023-03-14T07:24:57;5.95;86.34
75088;HTU21D;63664;44.868;40.600;2023-03-14T07:27:25;6.00;85.94
75088;HTU21D;63664;44.868;40.600;2023-03-14T07:29:51;6.05;86.00
75088;HTU21D;63664;44.868;40.600;2023-03-14T07:32:18;6.16;85.88
75088;HTU21D;63664;44.868;40.600;2023-03-14T07:34:47;6.26;85.78
75088;HTU21D;63664;44.868;40.600;2023-03-14T07:37:16;6.35;85.64
75088;HTU21D;63664;44.868;40.600;2023-03-14T07:39:42;6.43;85.48
75088;HTU21D;63664;44.868;40.600;2023-03-14T07:42:16;6.49;85.23
75088;HTU21D;63664;44.868;40.600;2023-03-14T07:44:45;6.49;85.30
75088;HTU21D;63664;44.868;40.600;2023-03-14T07:47:11;6.53;85.33
75088;HTU21D;63664;44.868;40.600;2023-03-14T07:49:40;6.59;85.31
75088;HTU21D;63664;44.868;40.600;2023-03-14T07:52:06;6.60;85.01
75088;HTU21D;63664;44.868;40.600;2023-03-14T07:54:32;6.67;85.13
75088;HTU21D;63664;44.868;40.600;2023-03-14T07:57:01;6.71;84.62
75088;HTU21D;63664;44.868;40.600;2023-03-14T07:59:27;6.70;84.64
75088;HTU21D;63664;44.868;40.600;2023-03-14T08:01:56;6.72;84.64
75088;HTU21D;63664;44.868;40.600;2023-03-14T08:04:22;6.75;84.43
75088;HTU21D;63664;44.868;40.600;2023-03-14T08:06:48;6.78;84.53
75088;HTU21D;63664;44.868;40.600;2023-03-14T08:09:17;6.85;84.38
75088;HTU21D;63664;44.868;40.600;2023-03-14T08:11:43;6.88;84.10
75088;HTU21D;63664;44.868;40.600;2023-03-14T08:14:10;6.91;84.25
75088;HTU21D;63664;44.868;40.600;2023-03-14T08:16:40;7.00;84.22
75088;HTU21D;63664;44.868;40.600;2023-03-14T08:19:09;7.08;84.05
75088;HTU21D;63664;44.868;40.600;2023-03-14T08:21:35;7.10;83.90
75088;HTU21D;63664;44.868;40.600;2023-03-14T08:24:01;7.14;83.97
75088;HTU21D;63664;44.868;40.600;2023-03-14T08:26:30;7.25;83.99
75088;HTU21D;63664;44.868;40.600;2023-03-14T08:28:56;7.33;83.83
75088;HTU21D;63664;44.868;40.600;2023-03-14T08:31:23;7.40;83.47
75088;HTU21D;63664;44.868;40.600;2023-03-14T08:33:52;7.40;83.36
75088;HTU21D;63664;44.868;40.600;2023-03-14T08:36:21;7.42;83.52
75088;HTU21D;63664;44.868;40.600;2023-03-14T08:38:47;7.45;83.31
75088;HTU21D;63664;44.868;40.600;2023-03-14T08:41:15;7.48;83.42
75088;HTU21D;63664;44.868;40.600;2023-03-14T08:43:42;7.48;83.26
75088;HTU21D;63664;44.868;40.600;2023-03-14T08:46:08;7.48;83.20
75088;HTU21D;63664;44.868;40.600;2023-03-14T08:48:34;7.48;83.27
75088;HTU21D;63664;44.868;40.600;2023-03-14T08:51:11;7.54;83.36
75088;HTU21D;63664;44.868;40.600;2023-03-14T08:53:42;7.53;83.12
75088;HTU21D;63664;44.868;40.600;2023-03-14T08:56:09;7.53;83.32
75088;HTU21D;63664;44.868;40.600;2023-03-14T08:58:37;7.60;83.36
75088;HTU21D;63664;44.868;40.600;2023-03-14T09:01:05;7.65;83.21
75088;HTU21D;63664;44.868;40.600;2023-03-14T09:03:31;7.69;83.25
75088;HTU21D;63664;44.868;40.600;2023-03-14T09:06:07;7.76;83.18
75088;HTU21D;63664;44.868;40.600;2023-03-14T09:08:36;7.82;83.12
75088;HTU21D;63664;44.868;40.600;2023-03-14T09:11:07;7.87;83.04
75088;HTU21D;63664;44.868;40.600;2023-03-14T09:13:36;7.91;83.00
75088;HTU21D;63664;44.868;40.600;2023-03-14T09:16:03;8.01;82.92
75088;HTU21D;63664;44.868;40.600;2023-03-14T09:18:31;8.11;82.86
75088;HTU21D;63664;44.868;40.600;2023-03-14T09:20:58;8.26;82.62
75088;HTU21D;63664;44.868;40.600;2023-03-14T09:23:24;8.33;82.55
75088;HTU21D;63664;44.868;40.600;2023-03-14T09:26:00;8.46;82.41
75088;HTU21D;63664;44.868;40.600;2023-03-14T09:28:26;8.64;82.42
75088;HTU21D;63664;44.868;40.600;2023-03-14T09:30:53;8.93;81.88
75088;HTU21D;63664;44.868;40.600;2023-03-14T09:33:20;9.25;81.47
75088;HTU21D;63664;44.868;40.600;2023-03-14T09:35:49;9.54;81.04
75088;HTU21D;63664;44.868;40.600;2023-03-14T09:38:18;9.94;80.63
75088;HTU21D;63664;44.868;40.600;2023-03-14T09:40:46;10.27;79.98
75088;HTU21D;63664;44.868;40.600;2023-03-14T09:43:14;10.31;79.78
75088;HTU21D;63664;44.868;40.600;2023-03-14T09:45:46;10.25;80.04
75088;HTU21D;63664;44.868;40.600;2023-03-14T09:48:22;10.19;80.43
75088;HTU21D;63664;44.868;40.600;2023-03-14T09:50:55;10.28;80.17
75088;HTU21D;63664;44.868;40.600;2023-03-14T09:53:31;10.38;80.15
75088;HTU21D;63664;44.868;40.600;2023-03-14T09:56:03;10.58;79.89
75088;HTU21D;63664;44.868;40.600;2023-03-14T09:58:30;10.77;79.47
75088;HTU21D;63664;44.868;40.600;2023-03-14T10:01:02;10.82;79.13
75088;HTU21D;63664;44.868;40.600;2023-03-14T10:03:32;10.99;79.10
75088;HTU21D;63664;44.868;40.600;2023-03-14T10:06:02;11.18;78.75
75088;HTU21D;63664;44.868;40.600;2023-03-14T10:08:42;11.38;78.56
75088;HTU21D;63664;44.868;40.600;2023-03-14T10:11:20;11.47;77.79
75088;HTU21D;63664;44.868;40.600;2023-03-14T10:14:07;11.43;77.70
75088;HTU21D;63664;44.868;40.600;2023-03-14T10:16:45;11.47;77.82
75088;HTU21D;63664;44.868;40.600;2023-03-14T10:19:14;11.68;77.78
75088;HTU21D;63664;44.868;40.600;2023-03-14T10:21:50;11.96;77.02
75088;HTU21D;63664;44.868;40.600;2023-03-14T10:27:08;11.97;76.93
75088;HTU21D;63664;44.868;40.600;2023-03-14T10:30:03;11.92;76.80
75088;HTU21D;63664;44.868;40.600;2023-03-14T10:32:38;11.73;76.86
75088;HTU21D;63664;44.868;40.600;2023-03-14T10:37:52;11.82;77.32
75088;HTU21D;63664;44.868;40.600;2023-03-14T10:40:31;11.94;76.95
75088;HTU21D;63664;44.868;40.600;2023-03-14T10:43:03;11.96;76.51
75088;HTU21D;63664;44.868;40.600;2023-03-14T10:51:06;12.22;75.86
75088;HTU21D;63664;44.868;40.600;2023-03-14T10:53:43;12.13;75.59
75088;HTU21D;63664;44.868;40.600;2023-03-14T10:56:22;11.99;76.04
75088;HTU21D;63664;44.868;40.600;2023-03-14T10:58:53;11.94;76.44
75088;HTU21D;63664;44.868;40.600;2023-03-14T11:12:25;11.81;76.55
75088;HTU21D;63664;44.868;40.600;2023-03-14T11:14:59;11.82;76.42
75088;HTU21D;63664;44.868;40.600;2023-03-14T11:26:37;11.97;76.19
75088;HTU21D;63664;44.868;40.600;2023-03-14T11:28:44;12.05;76.08
75088;HTU21D;63664;44.868;40.600;2023-03-14T11:31:26;12.28;75.83
75088;HTU21D;63664;44.868;40.600;2023-03-14T11:39:43;12.38;75.28
75088;HTU21D;63664;44.868;40.600;2023-03-14T11:42:19;12.27;75.46
75088;HTU21D;63664;44.868;40.600;2023-03-14T11:44:49;12.13;75.70
75088;HTU21D;63664;44.868;40.600;2023-03-14T11:47:25;12.15;75.88
75088;HTU21D;63664;44.868;40.600;2023-03-14T11:50:24;12.21;75.36
75088;HTU21D;63664;44.868;40.600;2023-03-14T11:53:02;12.19;75.57
75088;HTU21D;63664;44.868;40.600;2023-03-14T11:55:36;12.21;75.54
75088;HTU21D;63664;44.868;40.600;2023-03-14T11:58:23;12.27;75.54
75088;HTU21D;63664;44.868;40.600;2023-03-14T12:00:53;12.31;75.46
75088;HTU21D;63664;44.868;40.600;2023-03-14T12:09:02;12.49;75.01
75088;HTU21D;63664;44.868;40.600;2023-03-14T12:11:50;12.50;75.02
75088;HTU21D;63664;44.868;40.600;2023-03-14T12:14:28;12.50;75.07
75088;HTU21D;63664;44.868;40.600;2023-03-14T12:17:37;12.58;74.99
75088;HTU21D;63664;44.868;40.600;2023-03-14T12:20:19;12.59;74.99
75088;HTU21D;63664;44.868;40.600;2023-03-14T12:25:21;12.48;75.06
75088;HTU21D;63664;44.868;40.600;2023-03-14T12:41:27;11.94;75.32
75088;HTU21D;63664;44.868;40.600;2023-03-14T13:12:54;10.94;75.63
75088;HTU21D;63664;44.868;40.600;2023-03-14T13:15:35;10.86;75.73
75088;HTU21D;63664;44.868;40.600;2023-03-14T13:23:25;11.03;75.44
75088;HTU21D;63664;44.868;40.600;2023-03-14T13:25:51;11.03;75.19
75088;HTU21D;63664;44.868;40.600;2023-03-14T13:28:18;11.04;75.23
75088;HTU21D;63664;44.868;40.600;2023-03-14T13:30:47;11.07;75.15
75088;HTU21D;63664;44.868;40.600;2023-03-14T13:33:21;11.01;75.02
75088;HTU21D;63664;44.868;40.600;2023-03-14T13:36:04;10.95;74.83
75088;HTU21D;63664;44.868;40.600;2023-03-14T13:38:35;10.89;75.18
75088;HTU21D;63664;44.868;40.600;2023-03-14T13:41:08;10.93;75.20
75088;HTU21D;63664;44.868;40.600;2023-03-14T13:43:43;10.93;75.15
75088;HTU21D;63664;44.868;40.600;2023-03-14T13:46:25;10.90;75.04
75088;HTU21D;63664;44.868;40.600;2023-03-14T13:49:11;10.87;75.23
75088;HTU21D;63664;44.868;40.600;2023-03-14T13:51:39;10.85;75.11
75088;HTU21D;63664;44.868;40.600;2023-03-14T13:54:19;10.82;75.14
75088;HTU21D;63664;44.868;40.600;2023-03-14T13:56:47;10.78;74.84
75088;HTU21D;63664;44.868;40.600;2023-03-14T13:59:41;10.69;74.99
75088;HTU21D;63664;44.868;40.600;2023-03-14T14:53:01;9.18;76.10
75088;HTU21D;63664;44.868;40.600;2023-03-14T14:55:39;9.11;76.37
75088;HTU21D;63664;44.868;40.600;2023-03-14T15:00:55;8.97;76.60
75088;HTU21D;63664;44.868;40.600;2023-03-14T15:03:25;8.91;76.67
75088;HTU21D;63664;44.868;40.600;2023-03-14T15:05:56;8.86;76.75
75088;HTU21D;63664;44.868;40.600;2023-03-14T15:08:25;8.80;76.86
75088;HTU21D;63664;44.868;40.600;2023-03-14T15:10:56;8.74;76.95
75088;HTU21D;63664;44.868;40.600;2023-03-14T15:13:23;8.71;77.05
75088;HTU21D;63664;44.868;40.600;2023-03-14T15:15:53;8.65;77.06
75088;HTU21D;63664;44.868;40.600;2023-03-14T15:18:28;8.61;77.13
75088;HTU21D;63664;44.868;40.600;2023-03-14T15:20:56;8.56;77.22
75088;HTU21D;63664;44.868;40.600;2023-03-14T15:23:25;8.49;77.33
75088;HTU21D;63664;44.868;40.600;2023-03-14T15:25:54;8.42;77.40
75088;HTU21D;63664;44.868;40.600;2023-03-14T15:28:23;8.35;77.48
75088;HTU21D;63664;44.868;40.600;2023-03-14T15:30:55;8.30;77.54
75088;HTU21D;63664;44.868;40.600;2023-03-14T15:33:22;8.24;77.62
75088;HTU21D;63664;44.868;40.600;2023-03-14T15:35:49;8.20;77.69
75088;HTU21D;63664;44.868;40.600;2023-03-14T15:38:24;8.17;77.72
75088;HTU21D;63664;44.868;40.600;2023-03-14T15:40:53;8.12;77.69
75088;HTU21D;63664;44.868;40.600;2023-03-14T15:43:22;8.08;77.66
75088;HTU21D;63664;44.868;40.600;2023-03-14T15:53:47;7.94;77.88
75088;HTU21D;63664;44.868;40.600;2023-03-14T15:56:18;7.90;77.89
75088;HTU21D;63664;44.868;40.600;2023-03-14T15:58:44;7.89;77.92
75088;HTU21D;63664;44.868;40.600;2023-03-14T16:01:16;7.86;77.95
75088;HTU21D;63664;44.868;40.600;2023-03-14T16:03:44;7.84;77.97
75088;HTU21D;63664;44.868;40.600;2023-03-14T16:06:15;7.78;77.99
75088;HTU21D;63664;44.868;40.600;2023-03-14T16:08:44;7.75;78.07
75088;HTU21D;63664;44.868;40.600;2023-03-14T16:11:14;7.71;78.12
75088;HTU21D;63664;44.868;40.600;2023-03-14T16:13:42;7.64;78.21
75088;HTU21D;63664;44.868;40.600;2023-03-14T16:16:08;7.60;78.25
75088;HTU21D;63664;44.868;40.600;2023-03-14T16:18:38;7.57;78.31
75088;HTU21D;63664;44.868;40.600;2023-03-14T16:21:07;7.50;78.37
75088;HTU21D;63664;44.868;40.600;2023-03-14T16:23:36;7.46;78.33
75088;HTU21D;63664;44.868;40.600;2023-03-14T16:26:08;7.43;78.38
75088;HTU21D;63664;44.868;40.600;2023-03-14T16:28:35;7.37;78.39
75088;HTU21D;63664;44.868;40.600;2023-03-14T16:31:13;7.31;78.42
75088;HTU21D;63664;44.868;40.600;2023-03-14T16:33:41;7.26;78.42
75088;HTU21D;63664;44.868;40.600;2023-03-14T16:36:11;7.20;78.53
75088;HTU21D;63664;44.868;40.600;2023-03-14T16:38:43;7.17;78.53
75088;HTU21D;63664;44.868;40.600;2023-03-14T16:41:15;7.12;78.45
75088;HTU21D;63664;44.868;40.600;2023-03-14T16:43:45;7.09;78.55
75088;HTU21D;63664;44.868;40.600;2023-03-14T16:46:25;7.04;78.56
75088;HTU21D;63664;44.868;40.600;2023-03-14T16:48:54;7.00;78.61
75088;HTU21D;63664;44.868;40.600;2023-03-14T16:51:22;6.97;78.65
75088;HTU21D;63664;44.868;40.600;2023-03-14T16:53:51;6.94;78.69
75088;HTU21D;63664;44.868;40.600;2023-03-14T16:56:17;6.89;78.71
75088;HTU21D;63664;44.868;40.600;2023-03-14T16:58:50;6.84;78.79
75088;HTU21D;63664;44.868;40.600;2023-03-14T17:01:20;6.80;78.86
75088;HTU21D;63664;44.868;40.600;2023-03-14T17:03:50;6.76;78.91
75088;HTU21D;63664;44.868;40.600;2023-03-14T17:06:24;6.73;78.95
75088;HTU21D;63664;44.868;40.600;2023-03-14T17:08:53;6.69;79.00
75088;HTU21D;63664;44.868;40.600;2023-03-14T17:11:24;6.66;79.06
75088;HTU21D;63664;44.868;40.600;2023-03-14T17:13:53;6.61;79.11
75088;HTU21D;63664;44.868;40.600;2023-03-14T17:16:20;6.59;79.17
75088;HTU21D;63664;44.868;40.600;2023-03-14T17:18:46;6.55;79.24
75088;HTU21D;63664;44.868;40.600;2023-03-14T17:21:12;6.53;79.33
75088;HTU21D;63664;44.868;40.600;2023-03-14T17:23:39;6.49;79.42
75088;HTU21D;63664;44.868;40.600;2023-03-14T17:26:06;6.45;79.50
75088;HTU21D;63664;44.868;40.600;2023-03-14T17:28:35;6.41;79.59
75088;HTU21D;63664;44.868;40.600;2023-03-14T17:31:08;6.34;79.78
75088;HTU21D;63664;44.868;40.600;2023-03-14T17:33:35;6.31;79.86
75088;HTU21D;63664;44.868;40.600;2023-03-14T17:36:02;6.27;79.93
75088;HTU21D;63664;44.868;40.600;2023-03-14T17:38:34;6.27;80.00
75088;HTU21D;63664;44.868;40.600;2023-03-14T17:41:00;6.25;80.01
75088;HTU21D;63664;44.868;40.600;2023-03-14T17:43:27;6.25;80.09
75088;HTU21D;63664;44.868;40.600;2023-03-14T17:46:05;6.23;80.27
75088;HTU21D;63664;44.868;40.600;2023-03-14T17:48:34;6.22;80.30
75088;HTU21D;63664;44.868;40.600;2023-03-14T17:51:06;6.22;80.37
75088;HTU21D;63664;44.868;40.600;2023-03-14T17:53:35;6.21;80.41
75088;HTU21D;63664;44.868;40.600;2023-03-14T17:56:02;6.19;80.65
75088;HTU21D;63664;44.868;40.600;2023-03-14T17:58:30;6.15;80.75
75088;HTU21D;63664;44.868;40.600;2023-03-14T18:01:10;6.14;80.98
75088;HTU21D;63664;44.868;40.600;2023-03-14T18:03:40;6.12;80.91
75088;HTU21D;63664;44.868;40.600;2023-03-14T18:06:11;6.11;81.00
75088;HTU21D;63664;44.868;40.600;2023-03-14T18:08:38;6.11;81.24
75088;HTU21D;63664;44.868;40.600;2023-03-14T18:11:07;6.11;81.37
75088;HTU21D;63664;44.868;40.600;2023-03-14T18:13:40;6.10;81.47
75088;HTU21D;63664;44.868;40.600;2023-03-14T18:16:11;6.08;81.59
75088;HTU21D;63664;44.868;40.600;2023-03-14T18:18:45;6.07;81.59
75088;HTU21D;63664;44.868;40.600;2023-03-14T18:21:13;6.06;81.78
75088;HTU21D;63664;44.868;40.600;2023-03-14T18:23:39;6.05;82.27
75088;HTU21D;63664;44.868;40.600;2023-03-14T18:26:06;6.04;82.27
75088;HTU21D;63664;44.868;40.600;2023-03-14T18:28:35;6.01;82.23
75088;HTU21D;63664;44.868;40.600;2023-03-14T18:31:14;5.99;82.26
75088;HTU21D;63664;44.868;40.600;2023-03-14T18:33:41;5.99;82.33
75088;HTU21D;63664;44.868;40.600;2023-03-14T18:36:16;5.97;82.52
75088;HTU21D;63664;44.868;40.600;2023-03-14T18:38:42;5.97;82.52
75088;HTU21D;63664;44.868;40.600;2023-03-14T18:41:16;5.96;82.70
75088;HTU21D;63664;44.868;40.600;2023-03-14T18:43:50;5.95;82.95
75088;HTU21D;63664;44.868;40.600;2023-03-14T18:46:22;5.94;82.82
75088;HTU21D;63664;44.868;40.600;2023-03-14T18:48:52;5.92;82.95
75088;HTU21D;63664;44.868;40.600;2023-03-14T18:51:26;5.90;82.90
75088;HTU21D;63664;44.868;40.600;2023-03-14T18:53:59;5.91;83.13
75088;HTU21D;63664;44.868;40.600;2023-03-14T18:56:30;5.87;83.04
75088;HTU21D;63664;44.868;40.600;2023-03-14T18:58:56;5.87;83.16
75088;HTU21D;63664;44.868;40.600;2023-03-14T19:01:23;5.86;83.29
75088;HTU21D;63664;44.868;40.600;2023-03-14T19:03:54;5.83;83.33
75088;HTU21D;63664;44.868;40.600;2023-03-14T19:06:23;5.81;83.42
75088;HTU21D;63664;44.868;40.600;2023-03-14T19:08:53;5.79;83.51
75088;HTU21D;63664;44.868;40.600;2023-03-14T19:11:26;5.77;83.52
75088;HTU21D;63664;44.868;40.600;2023-03-14T19:13:53;5.76;83.83
75088;HTU21D;63664;44.868;40.600;2023-03-14T19:16:19;5.74;83.82
75088;HTU21D;63664;44.868;40.600;2023-03-14T19:18:52;5.72;83.84
75088;HTU21D;63664;44.868;40.600;2023-03-14T19:21:35;5.70;83.87
75088;HTU21D;63664;44.868;40.600;2023-03-14T19:24:03;5.69;83.84
75088;HTU21D;63664;44.868;40.600;2023-03-14T19:26:33;5.67;83.98
75088;HTU21D;63664;44.868;40.600;2023-03-14T19:29:01;5.65;84.10
75088;HTU21D;63664;44.868;40.600;2023-03-14T19:31:30;5.63;84.07
75088;HTU21D;63664;44.868;40.600;2023-03-14T19:33:57;5.61;84.17
75088;HTU21D;63664;44.868;40.600;2023-03-14T19:36:27;5.59;84.27
75088;HTU21D;63664;44.868;40.600;2023-03-14T19:38:58;5.56;84.37
75088;HTU21D;63664;44.868;40.600;2023-03-14T19:41:30;5.53;84.41
75088;HTU21D;63664;44.868;40.600;2023-03-14T19:43:56;5.52;84.46
75088;HTU21D;63664;44.868;40.600;2023-03-14T19:46:23;5.52;84.56
75088;HTU21D;63664;44.868;40.600;2023-03-14T19:48:55;5.52;84.56
75088;HTU21D;63664;44.868;40.600;2023-03-14T19:51:22;5.50;84.58
75088;HTU21D;63664;44.868;40.600;2023-03-14T19:53:49;5.47;84.77
75088;HTU21D;63664;44.868;40.600;2023-03-14T19:56:16;5.46;84.81
75088;HTU21D;63664;44.868;40.600;2023-03-14T19:58:44;5.46;84.87
75088;HTU21D;63664;44.868;40.600;2023-03-14T20:01:13;5.46;84.85
75088;HTU21D;63664;44.868;40.600;2023-03-14T20:03:39;5.43;84.86
75088;HTU21D;63664;44.868;40.600;2023-03-14T20:06:07;5.42;84.85
75088;HTU21D;63664;44.868;40.600;2023-03-14T20:08:37;5.40;84.87